Terminal Aerodrome Forecast
Issued by NWS Charleston, WV

Home | Current Version | Previous Version | Text Only | Print | Product List | Glossary On
Versions: 1 2 3 4 5 6 7 8 9 10 11 12 13 14 15 16 17 18 19 20 21
000
FTUS41 KRLX 030228 AAA
TAFPKB
TAF AMD
KPKB 030228Z 0302/0324 21003KT P6SM SCT250
     FM030900 19004KT P6SM SCT050 BKN100
     FM031400 22012G22KT P6SM BKN045
     FM031900 24012G20KT P6SM VCTS BKN040CB
     FM032200 26010G20KT 5SM TSRA BKN035CB BKN080=

USA.gov is the U.S. government's official web portal to all federal, state and local government web resources and services.